Time;durP1;ratioP1;P1;durP2;ratioP2;P2;SDS_P1;SDS_P2;PMS_P1;PMS_P2;Temp;Humidity;BMP_temperature;BMP_pressure;BME280_temperature;BME280_humidity;BME280_pressure;Samples;Min_cycle;Max_cycle;Signal;HPM_P1;HPM_P2
2020/12/15 00:00:11;;;;;;;39.92;18.12;;;;;;;7.29;55.48;101104.63;1832435;78;21136;-78
2020/12/15 00:02:40;;;;;;;38.65;18.07;;;;;;;7.31;55.47;101105.38;1822411;78;21194;-78
2020/12/15 00:05:08;;;;;;;44.18;19.52;;;;;;;7.31;55.45;101108.03;1780369;79;21384;-78
2020/12/15 00:07:37;;;;;;;42.27;19.35;;;;;;;7.31;55.47;101111.16;1832072;78;21192;-78
2020/12/15 00:10:05;;;;;;;43.63;20.15;;;;;;;7.29;55.48;101103.78;1822424;78;21197;-77
2020/12/15 00:12:33;;;;;;;44.40;20.25;;;;;;;7.30;55.50;101104.14;1799901;79;21172;-77
2020/12/15 00:15:01;;;;;;;43.23;19.60;;;;;;;7.27;55.50;101107.06;1832597;78;21160;-78
2020/12/15 00:17:29;;;;;;;35.65;16.05;;;;;;;7.26;55.53;101108.01;1822746;78;21656;-77
2020/12/15 00:19:57;;;;;;;41.35;18.27;;;;;;;7.23;55.59;101102.94;1800165;79;21200;-77
2020/12/15 00:22:24;;;;;;;33.95;16.55;;;;;;;7.24;55.60;101102.81;1832390;78;21164;-78
2020/12/15 00:24:52;;;;;;;38.58;18.95;;;;;;;7.26;55.56;101107.52;1822560;78;21355;-80
2020/12/15 00:27:20;;;;;;;38.95;19.25;;;;;;;7.22;55.67;101106.09;1799666;79;21603;-78
2020/12/15 00:29:48;;;;;;;37.95;17.45;;;;;;;7.26;55.61;101105.34;1832131;78;21790;-77
2020/12/15 00:32:15;;;;;;;38.40;18.77;;;;;;;7.29;55.49;101103.78;1793031;78;21072;-78
2020/12/15 00:34:43;;;;;;;37.50;17.48;;;;;;;7.32;55.42;101103.55;1800302;79;21153;-79
2020/12/15 00:37:12;;;;;;;37.05;17.65;;;;;;;7.32;55.35;101107.05;1832601;78;21148;-78
2020/12/15 00:39:39;;;;;;;35.10;16.62;;;;;;;7.26;55.46;101096.86;1822601;78;21189;-78
2020/12/15 00:42:07;;;;;;;28.83;14.13;;;;;;;7.25;55.52;101100.99;1800104;79;21757;-78
2020/12/15 00:44:35;;;;;;;29.05;14.90;;;;;;;7.32;55.39;101107.55;1832408;78;21239;-78
2020/12/15 00:47:04;;;;;;;38.78;19.45;;;;;;;7.32;55.40;101103.55;1822716;78;21143;-78
2020/12/15 00:49:32;;;;;;;38.80;19.67;;;;;;;7.33;55.39;101098.58;1800053;79;21164;-78
2020/12/15 00:52:00;;;;;;;34.95;18.10;;;;;;;7.33;55.36;101094.58;1832019;78;21173;-78
2020/12/15 00:54:30;;;;;;;43.25;19.85;;;;;;;7.33;55.32;101089.25;1823215;78;22245;-80
2020/12/15 00:56:58;;;;;;;36.93;17.70;;;;;;;7.34;55.26;101090.94;1799543;78;21627;-79
2020/12/15 00:59:26;;;;;;;50.50;20.40;;;;;;;7.35;55.25;101092.62;1831201;78;21128;-78
2020/12/15 01:01:59;;;;;;;71.33;26.97;;;;;;;7.34;55.24;101085.60;1855258;77;21173;-77
2020/12/15 01:04:28;;;;;;;57.35;23.40;;;;;;;7.29;55.28;101084.64;1848256;77;21427;-77
2020/12/15 01:06:57;;;;;;;44.15;20.37;;;;;;;7.33;55.34;101081.25;1824665;78;21799;-78
2020/12/15 01:09:25;;;;;;;42.27;19.23;;;;;;;7.34;55.31;101073.61;1855892;77;21174;-77
2020/12/15 01:11:52;;;;;;;40.85;19.70;;;;;;;7.33;55.30;101083.92;1847384;77;21612;-78
2020/12/15 01:14:22;;;;;;;48.17;20.57;;;;;;;7.31;55.32;101083.17;1823862;78;21136;-78
2020/12/15 01:17:09;;;;;;;37.35;17.70;;;;;;;7.33;55.24;101085.25;1856359;77;21558;-79
2020/12/15 01:19:38;;;;;;;37.83;17.55;;;;;;;7.31;55.27;101085.84;1847783;77;21191;-77
2020/12/15 01:22:09;;;;;;;44.75;20.20;;;;;;;7.25;55.38;101087.18;1823917;78;21240;-77
2020/12/15 01:24:40;;;;;;;38.08;16.70;;;;;;;7.26;55.41;101086.20;1855910;77;21149;-80
2020/12/15 01:27:17;;;;;;;41.18;19.77;;;;;;;7.24;55.45;101080.16;1773071;80;21132;-77
2020/12/15 01:30:02;;;;;;;44.90;20.37;;;;;;;7.27;55.50;101076.42;1787610;80;21200;-78
2020/12/15 01:32:49;;;;;;;36.30;18.52;;;;;;;7.32;55.38;101074.23;1818315;78;21445;-78
2020/12/15 01:35:18;;;;;;;38.05;17.17;;;;;;;7.35;55.32;101080.63;1816291;79;21201;-79
2020/12/15 01:37:46;;;;;;;35.60;17.30;;;;;;;7.36;55.28;101081.02;1824023;78;21492;-78
2020/12/15 01:40:17;;;;;;;35.73;17.42;;;;;;;7.35;55.25;101073.97;1824136;78;21164;-77
2020/12/15 01:42:44;;;;;;;33.28;16.95;;;;;;;7.33;55.29;101075.44;1824177;78;21151;-77
2020/12/15 01:45:12;;;;;;;30.62;15.48;;;;;;;7.31;55.30;101076.52;1824539;78;21404;-81
2020/12/15 01:47:42;;;;;;;57.25;29.30;;;;;;;7.31;55.32;101080.05;1824049;78;21188;-80
2020/12/15 01:50:10;;;;;;;36.90;18.73;;;;;;;7.31;55.36;101076.05;1823966;78;21180;-77
2020/12/15 01:52:38;;;;;;;33.95;17.23;;;;;;;7.33;55.38;101078.09;1792684;78;21208;-79
2020/12/15 01:55:08;;;;;;;32.73;17.32;;;;;;;7.34;55.34;101074.45;1822642;78;21173;-79
2020/12/15 01:57:39;;;;;;;33.73;17.00;;;;;;;7.33;55.34;101070.10;1811015;78;21643;-77
2020/12/15 02:00:08;;;;;;;33.70;17.42;;;;;;;7.32;55.35;101077.74;1821456;78;21680;-78
2020/12/15 02:02:47;;;;;;;35.50;17.62;;;;;;;7.35;55.36;101072.63;1822734;78;21120;-78
2020/12/15 02:05:17;;;;;;;33.90;16.42;;;;;;;7.36;55.30;101077.87;1821405;78;21161;-77
2020/12/15 02:07:46;;;;;;;32.28;15.13;;;;;;;7.36;55.27;101072.53;1823901;78;21121;-77
2020/12/15 02:10:14;;;;;;;34.85;16.73;;;;;;;7.37;55.21;101076.05;1794194;78;21337;-78
2020/12/15 02:13:00;;;;;;;32.73;16.55;;;;;;;7.36;55.21;101083.20;1818969;78;21531;-78
2020/12/15 02:15:27;;;;;;;38.53;17.55;;;;;;;7.34;55.24;101084.27;1823685;78;21169;-78
2020/12/15 02:17:57;;;;;;;37.20;18.00;;;;;;;7.35;55.26;101084.63;1822278;78;21181;-79
2020/12/15 02:20:29;;;;;;;36.95;17.82;;;;;;;7.35;55.23;101083.30;1822681;78;21223;-78
2020/12/15 02:23:02;;;;;;;32.33;17.62;;;;;;;7.35;55.18;101087.30;1823102;78;21486;-76
2020/12/15 02:25:31;;;;;;;36.25;18.27;;;;;;;7.35;55.14;101093.47;1822804;78;21479;-77
2020/12/15 02:27:59;;;;;;;36.20;17.70;;;;;;;7.34;55.17;101097.59;1824108;78;21472;-82
2020/12/15 02:30:27;;;;;;;29.12;15.58;;;;;;;7.34;55.17;101098.93;1830451;77;21699;-80
2020/12/15 02:32:57;;;;;;;31.97;17.02;;;;;;;7.33;55.18;101096.75;1777519;78;21188;-80
2020/12/15 02:35:27;;;;;;;37.67;19.12;;;;;;;7.37;55.13;101098.21;1818103;77;21363;-80
2020/12/15 02:37:55;;;;;;;39.90;22.00;;;;;;;7.38;55.13;101100.39;1816337;77;21180;-82
2020/12/15 02:40:25;;;;;;;40.85;21.30;;;;;;;7.38;55.11;101093.72;1818086;78;21175;-79
2020/12/15 02:43:00;;;;;;;41.48;20.57;;;;;;;7.38;55.08;101095.90;1817498;78;21246;-77
2020/12/15 02:45:29;;;;;;;39.53;19.82;;;;;;;7.39;55.09;101098.08;1819652;77;21156;-78
2020/12/15 02:47:58;;;;;;;39.48;18.90;;;;;;;7.38;55.07;101088.39;1820949;77;21796;-78
2020/12/15 02:50:28;;;;;;;34.23;16.65;;;;;;;7.35;55.10;101092.13;1818394;77;21161;-77
2020/12/15 02:52:57;;;;;;;32.28;16.62;;;;;;;7.36;55.15;101098.34;1817642;77;21212;-76
2020/12/15 02:55:27;;;;;;;33.38;16.97;;;;;;;7.38;55.16;101097.72;1819721;77;21182;-79
2020/12/15 02:57:56;;;;;;;36.70;17.52;;;;;;;7.39;55.22;101103.41;1788094;78;21624;-78
2020/12/15 03:00:24;;;;;;;34.13;16.20;;;;;;;7.40;55.18;101103.77;1792898;80;22318;-79
2020/12/15 03:02:53;;;;;;;33.48;17.17;;;;;;;7.32;55.36;101112.88;1830993;77;21198;-82
2020/12/15 03:05:23;;;;;;;36.30;16.65;;;;;;;7.36;55.31;101115.66;1796618;78;21734;-77
2020/12/15 03:07:52;;;;;;;35.73;16.93;;;;;;;7.32;55.36;101116.88;1797281;78;21512;-80
2020/12/15 03:10:20;;;;;;;30.12;13.90;;;;;;;7.32;55.29;101118.20;1813200;77;21654;-79
2020/12/15 03:12:49;;;;;;;34.78;16.07;;;;;;;7.29;55.26;101115.77;1816083;78;21358;-83
2020/12/15 03:15:19;;;;;;;32.60;16.52;;;;;;;7.31;55.26;101116.03;1806294;78;21149;-80
2020/12/15 03:17:47;;;;;;;35.58;17.23;;;;;;;7.32;55.36;101114.20;1809587;78;21114;-81
2020/12/15 03:20:16;;;;;;;40.05;19.48;;;;;;;7.34;55.37;101118.42;1808753;78;21034;-80
2020/12/15 03:22:44;;;;;;;34.35;17.85;;;;;;;7.35;55.37;101116.12;1807356;78;21198;-82
2020/12/15 03:25:19;;;;;;;36.08;19.32;;;;;;;7.36;55.35;101113.00;1811996;78;21373;-80
2020/12/15 03:27:47;;;;;;;37.83;20.27;;;;;;;7.39;55.23;101102.07;1809122;78;21229;-80
2020/12/15 03:30:17;;;;;;;41.37;20.30;;;;;;;7.43;55.09;101112.02;1803546;78;21058;-80
2020/12/15 03:32:45;;;;;;;30.95;15.35;;;;;;;7.41;55.05;101110.81;1809221;78;21221;-81
2020/12/15 03:35:13;;;;;;;30.82;16.50;;;;;;;7.38;55.08;101113.71;1818857;78;21120;-80
2020/12/15 03:37:42;;;;;;;27.70;14.90;;;;;;;7.38;55.14;101115.05;1807507;78;21159;-84
2020/12/15 03:40:11;;;;;;;31.27;16.05;;;;;;;7.39;55.12;101114.06;1808211;78;21507;-83
2020/12/15 03:42:44;;;;;;;33.70;17.20;;;;;;;7.41;55.13;101117.97;1763260;78;21180;-81
2020/12/15 03:45:13;;;;;;;29.55;14.65;;;;;;;7.41;55.05;101108.15;1828497;77;21165;-77
2020/12/15 03:47:42;;;;;;;31.48;16.15;;;;;;;7.42;55.04;101117.83;1804089;78;21166;-79
2020/12/15 03:50:11;;;;;;;32.48;16.55;;;;;;;7.43;55.01;101112.02;1804344;78;21332;-79
2020/12/15 03:52:39;;;;;;;25.62;13.68;;;;;;;7.45;55.04;101122.05;1804833;78;21172;-79
2020/12/15 03:55:09;;;;;;;30.95;16.85;;;;;;;7.46;54.94;101119.28;1814248;78;21196;-79
2020/12/15 03:57:42;;;;;;;29.95;15.50;;;;;;;7.47;54.92;101126.30;1808364;78;21188;-81
2020/12/15 04:00:14;;;;;;;36.28;18.32;;;;;;;7.49;54.94;101129.69;1803346;78;21108;-86
2020/12/15 04:02:52;;;;;;;47.00;26.48;;;;;;;7.50;54.94;101130.56;1802457;78;22243;-81
2020/12/15 04:05:22;;;;;;;40.25;23.15;;;;;;;7.52;54.92;101125.45;1800406;78;21117;-79
2020/12/15 04:07:50;;;;;;;36.05;20.68;;;;;;;7.51;54.83;101126.43;1814603;78;21132;-82
2020/12/15 04:10:19;;;;;;;34.85;18.48;;;;;;;7.50;54.81;101126.08;1799936;79;21018;-82
2020/12/15 04:12:48;;;;;;;31.93;17.02;;;;;;;7.47;54.79;101127.64;1812594;78;21156;-81
2020/12/15 04:15:16;;;;;;;24.32;12.58;;;;;;;7.45;54.78;101131.38;1799872;79;22044;-82
2020/12/15 04:17:44;;;;;;;29.12;15.95;;;;;;;7.44;54.76;101131.87;1781848;78;21187;-76
2020/12/15 04:20:13;;;;;;;27.20;15.28;;;;;;;7.35;54.97;101136.11;1805799;78;21188;-82
2020/12/15 04:22:41;;;;;;;28.05;15.15;;;;;;;7.31;55.14;101145.80;1813734;78;21220;-82
2020/12/15 04:25:10;;;;;;;31.62;17.73;;;;;;;7.29;55.25;101146.41;1811061;78;21659;-81
2020/12/15 04:27:39;;;;;;;30.55;16.77;;;;;;;7.29;55.31;101147.27;1806734;78;21375;-81
2020/12/15 04:30:07;;;;;;;33.95;16.35;;;;;;;7.29;55.28;101145.08;1811557;78;21728;-80
2020/12/15 04:32:35;;;;;;;28.30;15.68;;;;;;;7.30;55.28;101142.77;1800125;78;21168;-78
2020/12/15 04:35:05;;;;;;;30.70;15.72;;;;;;;7.31;55.27;101149.80;1822902;78;21236;-81
2020/12/15 04:37:33;;;;;;;32.03;16.85;;;;;;;7.30;55.30;101154.28;1806117;78;21193;-79
2020/12/15 04:40:03;;;;;;;25.55;13.25;;;;;;;7.30;55.32;101162.77;1810756;79;22654;-78
2020/12/15 04:42:33;;;;;;;27.52;14.40;;;;;;;7.28;55.32;101155.38;1797536;78;21208;-81
2020/12/15 04:45:01;;;;;;;30.17;15.85;;;;;;;7.31;55.33;101166.66;1801993;79;21169;-80
2020/12/15 04:47:37;;;;;;;29.40;15.55;;;;;;;7.34;55.29;101165.55;1798598;79;21658;-78
2020/12/15 04:50:08;;;;;;;32.83;16.93;;;;;;;7.34;55.29;101162.40;1798973;79;21611;-78
2020/12/15 04:52:59;;;;;;;32.67;16.40;;;;;;;7.37;55.26;101167.50;1802729;78;22250;-80
2020/12/15 04:55:26;;;;;;;;;;;;;;;7.38;55.24;101167.86;1803166;78;21201;-82
2020/12/15 04:57:58;;;;;;;31.85;15.83;;;;;;;7.48;54.99;101171.98;1798489;79;20277;-79
2020/12/15 05:00:26;;;;;;;30.25;15.13;;;;;;;7.47;54.98;101172.95;1809536;78;21809;-79
2020/12/15 05:02:58;;;;;;;33.67;16.97;;;;;;;7.48;54.92;101177.31;1796283;79;21200;-77
2020/12/15 05:05:26;;;;;;;32.05;16.02;;;;;;;7.48;54.93;101177.80;1798533;79;21203;-77
2020/12/15 05:07:54;;;;;;;32.90;17.27;;;;;;;7.51;54.93;101183.74;1799083;79;21741;-79
2020/12/15 05:10:27;;;;;;;32.35;18.23;;;;;;;7.53;54.89;101188.45;1778382;79;21647;-80
2020/12/15 05:13:16;;;;;;;31.93;18.05;;;;;;;7.54;54.83;101187.52;1815412;78;21165;-80
2020/12/15 05:15:43;;;;;;;32.95;17.98;;;;;;;7.52;54.80;101186.77;1811807;78;21488;-80
2020/12/15 05:18:29;;;;;;;31.70;16.67;;;;;;;7.52;54.81;101192.09;1798715;79;22174;-78
2020/12/15 05:20:58;;;;;;;30.72;17.65;;;;;;;7.50;54.80;101183.39;1798637;79;21121;-78
2020/12/15 05:23:28;;;;;;;27.25;14.28;;;;;;;7.49;54.80;101196.33;1798185;79;21109;-78
2020/12/15 05:26:03;;;;;;;33.13;17.73;;;;;;;7.49;54.85;101191.48;1798196;79;21120;-79
2020/12/15 05:28:33;;;;;;;32.28;16.97;;;;;;;7.48;54.89;101190.64;1796328;78;21642;-77
2020/12/15 05:31:01;;;;;;;36.58;18.37;;;;;;;7.50;54.85;101199.87;1798851;79;21895;-79
2020/12/15 05:33:33;;;;;;;35.45;19.73;;;;;;;7.50;54.83;101206.05;1807882;78;21110;-79
2020/12/15 05:36:20;;;;;;;33.83;17.37;;;;;;;7.50;54.85;101206.05;1801466;78;21146;-76
2020/12/15 05:39:06;;;;;;;33.40;17.62;;;;;;;7.49;54.82;101212.31;1766729;79;21525;-78
2020/12/15 05:41:36;;;;;;;32.08;17.05;;;;;;;7.49;54.85;101220.31;1811905;78;21643;-80
2020/12/15 05:44:05;;;;;;;36.95;17.02;;;;;;;7.48;54.82;101225.29;1811966;78;22201;-79
2020/12/15 05:46:33;;;;;;;31.10;15.13;;;;;;;7.46;54.83;101227.73;1816648;77;21118;-79
2020/12/15 05:49:05;;;;;;;36.33;17.98;;;;;;;7.46;54.87;101217.06;1791544;79;21120;-78
2020/12/15 05:51:43;;;;;;;32.80;17.90;;;;;;;7.46;54.91;101227.24;1808345;78;21126;-79
2020/12/15 05:54:14;;;;;;;36.38;19.10;;;;;;;7.47;54.92;101232.93;1820887;77;21118;-79
2020/12/15 05:56:41;;;;;;;37.23;19.30;;;;;;;7.47;54.93;101244.92;1852165;77;21354;-78
2020/12/15 05:59:20;;;;;;;32.13;17.65;;;;;;;7.50;54.90;101242.52;1839154;77;21132;-77
2020/12/15 06:01:49;;;;;;;33.63;17.50;;;;;;;7.47;54.90;101242.26;1803868;79;21125;-77
2020/12/15 06:04:18;;;;;;;36.38;18.52;;;;;;;7.48;54.92;101251.95;1812774;78;21143;-78
2020/12/15 06:06:46;;;;;;;34.15;18.25;;;;;;;7.49;54.90;101250.13;1822091;77;21090;-79
2020/12/15 06:09:17;;;;;;;35.70;18.37;;;;;;;7.49;54.91;101246.13;1812591;78;21905;-79
2020/12/15 06:11:46;;;;;;;30.23;15.72;;;;;;;7.48;54.93;101253.28;1815691;77;21638;-78
2020/12/15 06:14:14;;;;;;;32.65;17.55;;;;;;;7.48;54.92;101261.77;1836273;77;21639;-82
2020/12/15 06:16:42;;;;;;;32.28;16.32;;;;;;;7.48;54.92;101257.28;1837054;77;21559;-79
2020/12/15 06:19:12;;;;;;;32.93;17.57;;;;;;;7.53;54.83;101268.43;1826203;77;21078;-78
2020/12/15 06:21:53;;;;;;;35.17;18.25;;;;;;;7.55;54.78;101263.84;1797228;78;21362;-79
2020/12/15 06:24:29;;;;;;;35.33;18.05;;;;;;;7.58;54.71;101270.73;1806433;78;21148;-77
2020/12/15 06:27:00;;;;;;;33.58;17.40;;;;;;;7.57;54.67;101276.56;1811017;77;21104;-79
2020/12/15 06:29:40;;;;;;;35.48;17.90;;;;;;;7.58;54.69;101279.58;1814214;78;21094;-77
2020/12/15 06:32:17;;;;;;;32.78;17.45;;;;;;;7.59;54.71;101285.80;1797755;78;21100;-78
2020/12/15 06:34:47;;;;;;;32.28;16.27;;;;;;;7.57;54.76;101281.89;1823136;77;21187;-78
2020/12/15 06:37:19;;;;;;;31.57;17.35;;;;;;;7.49;54.99;101279.45;1826668;77;21117;-78
2020/12/15 06:40:04;;;;;;;30.12;17.23;;;;;;;7.51;55.06;101281.05;1822050;77;21131;-78
2020/12/15 06:42:32;;;;;;;34.90;18.77;;;;;;;7.53;55.05;101282.25;1827494;77;21141;-78
2020/12/15 06:45:08;;;;;;;34.05;17.55;;;;;;;7.56;54.96;101292.69;1803195;77;21570;-78
2020/12/15 06:47:36;;;;;;;31.30;16.67;;;;;;;7.58;54.88;101292.91;1835948;77;21336;-79
2020/12/15 06:50:17;;;;;;;32.60;16.62;;;;;;;7.59;54.82;101283.12;1820953;77;21188;-77
2020/12/15 06:52:46;;;;;;;31.82;16.42;;;;;;;7.59;54.82;101290.64;1808654;78;21138;-77
2020/12/15 06:55:14;;;;;;;30.37;16.67;;;;;;;7.58;54.73;101286.73;1796880;79;21454;-78
2020/12/15 06:57:42;;;;;;;31.07;16.37;;;;;;;7.58;54.76;101291.58;1808199;78;21579;-77
2020/12/15 07:00:11;;;;;;;31.10;17.73;;;;;;;7.58;54.82;101290.25;1816027;78;22218;-79
2020/12/15 07:02:39;;;;;;;32.55;17.45;;;;;;;7.61;54.80;101296.69;1812204;78;20998;-77
2020/12/15 07:05:26;;;;;;;35.20;19.05;;;;;;;7.63;54.76;101294.77;1813555;78;21140;-78
2020/12/15 07:07:56;;;;;;;33.50;18.35;;;;;;;7.62;54.81;101291.71;1809535;78;21133;-77
2020/12/15 07:10:26;;;;;;;33.83;16.97;;;;;;;7.62;54.75;101285.53;1812326;78;21098;-77
2020/12/15 07:12:59;;;;;;;31.55;17.92;;;;;;;7.63;54.68;101288.59;1814434;78;21342;-77
2020/12/15 07:15:25;;;;;;;28.55;16.27;;;;;;;7.62;54.69;101285.05;1815267;78;21421;-78
2020/12/15 07:17:52;;;;;;;28.60;16.17;;;;;;;7.62;54.65;101286.38;1821253;78;21560;-78
2020/12/15 07:20:21;;;;;;;30.92;16.48;;;;;;;7.62;54.68;101293.05;1812257;78;21097;-78
2020/12/15 07:22:50;;;;;;;29.18;16.23;;;;;;;7.61;54.63;101294.51;1815323;78;22019;-77
2020/12/15 07:25:18;;;;;;;27.25;16.23;;;;;;;7.61;54.60;101294.02;1812542;78;21372;-76
2020/12/15 07:27:46;;;;;;;28.23;16.32;;;;;;;7.63;54.59;101294.77;1814766;78;21171;-77
2020/12/15 07:30:17;;;;;;;29.10;17.10;;;;;;;7.65;54.58;101297.30;1813841;78;21145;-76
2020/12/15 07:32:46;;;;;;;29.25;17.35;;;;;;;7.67;54.48;101297.17;1811397;78;21140;-78
2020/12/15 07:35:22;;;;;;;29.82;17.82;;;;;;;7.68;54.56;101300.23;1814632;78;21105;-75
2020/12/15 07:37:46;;;;;;;28.00;16.02;;;;;;;7.71;54.59;101302.16;1812517;78;21223;-77
2020/12/15 07:40:17;;;;;;;26.90;15.28;;;;;;;7.73;54.59;101306.05;1833890;77;21116;-77
2020/12/15 07:43:00;;;;;;;28.15;16.15;;;;;;;7.75;54.45;101302.77;1795091;79;21112;-76
2020/12/15 07:45:30;;;;;;;28.85;16.32;;;;;;;7.74;54.45;101302.41;1801860;78;21453;-75
2020/12/15 07:47:59;;;;;;;26.15;14.87;;;;;;;7.74;54.47;101307.75;1798421;78;21117;-77
2020/12/15 07:50:29;;;;;;;27.13;16.50;;;;;;;7.74;54.55;101309.08;1802332;78;21193;-77
2020/12/15 07:53:11;;;;;;;29.20;17.20;;;;;;;7.75;54.65;101308.10;1811515;77;21114;-77
2020/12/15 07:55:40;;;;;;;26.40;16.12;;;;;;;7.76;54.71;101305.80;1832922;76;21121;-77
2020/12/15 07:58:15;;;;;;;27.13;15.88;;;;;;;7.79;54.69;101313.57;1813480;77;22046;-79
2020/12/15 08:00:43;;;;;;;26.42;15.98;;;;;;;7.82;54.69;101317.34;1814644;77;21159;-79
2020/12/15 08:03:11;;;;;;;30.37;17.00;;;;;;;7.83;54.61;101319.88;1807935;78;22214;-79
2020/12/15 08:05:39;;;;;;;27.58;16.20;;;;;;;7.85;54.75;101325.08;1810442;78;21959;-78
2020/12/15 08:08:07;;;;;;;27.35;15.80;;;;;;;7.86;54.74;101325.47;1812496;77;21415;-78
2020/12/15 08:10:35;;;;;;;29.32;16.37;;;;;;;7.88;54.75;101331.03;1804728;78;21074;-78
2020/12/15 08:13:05;;;;;;;26.00;13.45;;;;;;;7.93;54.74;101324.50;1803131;78;21082;-78
2020/12/15 08:15:41;;;;;;;25.80;14.95;;;;;;;7.95;54.75;101329.21;1771151;78;21611;-79
2020/12/15 08:18:12;;;;;;;29.23;16.57;;;;;;;7.98;54.78;101320.98;1797862;78;21124;-79
2020/12/15 08:20:41;;;;;;;28.40;14.90;;;;;;;8.00;54.82;101323.91;1827891;76;21132;-76
2020/12/15 08:23:11;;;;;;;24.45;14.75;;;;;;;7.98;54.79;101324.49;1816490;77;21100;-78
2020/12/15 08:25:43;;;;;;;32.13;16.25;;;;;;;8.01;54.65;101317.59;1833167;76;21116;-79
2020/12/15 08:28:21;;;;;;;28.00;16.05;;;;;;;8.03;54.56;101322.31;1829988;77;22207;-78
2020/12/15 08:30:55;;;;;;;31.70;16.90;;;;;;;8.04;54.56;101324.03;1828183;77;21163;-77
2020/12/15 08:33:29;;;;;;;30.92;16.40;;;;;;;8.04;54.60;101321.82;1834087;77;21128;-77
2020/12/15 08:35:59;;;;;;;30.92;14.98;;;;;;;8.04;54.61;101326.70;1826048;77;21421;-77
2020/12/15 08:38:27;;;;;;;33.83;16.12;;;;;;;8.03;54.62;101328.98;1826964;77;21914;-79
2020/12/15 08:40:59;;;;;;;27.67;14.25;;;;;;;8.06;54.61;101323.41;1825010;77;21616;-76
2020/12/15 08:43:28;;;;;;;27.50;14.73;;;;;;;8.09;54.64;101329.85;1808753;78;21393;-81
2020/12/15 08:46:02;;;;;;;29.92;16.07;;;;;;;8.10;54.57;101324.87;1794050;78;21133;-78
2020/12/15 08:48:34;;;;;;;27.37;15.15;;;;;;;8.10;54.40;101326.20;1816725;77;21141;-76
2020/12/15 08:51:13;;;;;;;29.02;15.95;;;;;;;8.11;54.42;101325.23;1751164;78;21105;-79
2020/12/15 08:53:42;;;;;;;26.60;15.05;;;;;;;8.13;54.46;101325.97;1827478;76;21796;-78
2020/12/15 08:56:16;;;;;;;24.37;14.45;;;;;;;8.16;54.46;101326.69;1784026;78;21484;-79
2020/12/15 08:58:45;;;;;;;26.52;14.47;;;;;;;8.16;54.46;101321.35;1800380;78;21402;-79
2020/12/15 09:01:13;;;;;;;22.40;11.57;;;;;;;8.13;54.26;101321.97;1811088;78;21101;-79
2020/12/15 09:03:46;;;;;;;28.75;15.20;;;;;;;8.12;54.37;101318.06;1783716;78;21445;-78
2020/12/15 09:06:15;;;;;;;25.30;14.60;;;;;;;8.11;54.47;101317.22;1811146;78;21418;-79
2020/12/15 09:08:48;;;;;;;29.42;16.70;;;;;;;8.13;54.50;101324.64;1810019;78;21116;-80
2020/12/15 09:11:17;;;;;;;30.88;16.12;;;;;;;8.13;54.41;101325.97;1813497;78;21109;-79
2020/12/15 09:13:53;;;;;;;27.15;15.48;;;;;;;8.16;54.39;101324.02;1806446;78;21089;-78
2020/12/15 09:16:28;;;;;;;27.30;15.75;;;;;;;8.16;54.43;101320.02;1808453;78;21671;-80
2020/12/15 09:18:56;;;;;;;26.45;14.33;;;;;;;8.17;54.42;101327.05;1815463;78;21353;-79
2020/12/15 09:21:27;;;;;;;39.03;17.92;;;;;;;8.19;54.43;101333.13;1814182;77;21832;-81
2020/12/15 09:23:56;;;;;;;27.42;15.30;;;;;;;8.17;54.43;101325.71;1816949;77;21148;-78
2020/12/15 09:26:27;;;;;;;21.17;12.53;;;;;;;8.19;54.48;101323.79;1834235;77;21492;-79
2020/12/15 09:29:05;;;;;;;27.67;14.63;;;;;;;8.21;54.43;101321.83;1829433;76;21081;-81
2020/12/15 09:31:33;;;;;;;28.35;16.12;;;;;;;8.24;54.48;101315.77;1831306;76;22153;-79
2020/12/15 09:34:02;;;;;;;28.25;15.90;;;;;;;8.27;54.53;101312.87;1825174;76;21113;-79
2020/12/15 09:36:30;;;;;;;28.80;15.38;;;;;;;8.32;54.61;101311.17;1827260;76;21136;-78
2020/12/15 09:38:58;;;;;;;27.40;14.98;;;;;;;8.36;54.48;101308.62;1827823;77;21089;-79
2020/12/15 09:41:26;;;;;;;23.67;14.25;;;;;;;8.39;54.44;101303.89;1810161;78;21183;-80
2020/12/15 09:43:53;;;;;;;26.70;14.55;;;;;;;8.42;54.54;101309.97;1818070;77;21277;-79
2020/12/15 09:46:21;;;;;;;27.40;15.23;;;;;;;8.46;54.66;101305.59;1813665;77;21642;-78
2020/12/15 09:48:49;;;;;;;25.70;14.65;;;;;;;8.47;54.50;101307.28;1802590;78;21338;-78
2020/12/15 09:51:19;;;;;;;23.70;13.78;;;;;;;8.48;54.36;101312.14;1803361;78;21097;-78
2020/12/15 09:53:48;;;;;;;24.32;14.55;;;;;;;8.47;54.13;101311.30;1805859;78;21618;-77
2020/12/15 09:56:16;;;;;;;28.25;15.70;;;;;;;8.46;54.16;101304.27;1799296;78;21355;-79
2020/12/15 09:58:46;;;;;;;26.52;15.48;;;;;;;8.47;54.03;101306.44;1804629;78;21144;-80
2020/12/15 10:01:16;;;;;;;27.20;15.03;;;;;;;8.46;54.01;101302.92;1789083;78;21121;-80
2020/12/15 10:03:44;;;;;;;29.80;16.82;;;;;;;8.45;53.95;101306.58;1804493;78;21098;-79
2020/12/15 10:06:16;;;;;;;31.25;17.55;;;;;;;8.44;53.92;101304.85;1773961;78;21136;-79
2020/12/15 10:08:44;;;;;;;34.35;20.23;;;;;;;8.42;53.96;101306.81;1805287;78;21358;-79
2020/12/15 10:11:16;;;;;;;28.00;16.10;;;;;;;8.43;53.96;101307.17;1799421;78;21117;-79
2020/12/15 10:13:44;;;;;;;24.45;13.65;;;;;;;8.45;53.94;101305.70;1800131;78;21121;-80
2020/12/15 10:16:12;;;;;;;28.47;16.80;;;;;;;8.46;53.84;101304.27;1802177;78;21162;-79
2020/12/15 10:18:41;;;;;;;26.55;15.85;;;;;;;8.50;53.70;101303.53;1804645;78;21148;-78
2020/12/15 10:21:09;;;;;;;29.40;16.37;;;;;;;8.50;53.81;101300.38;1803946;78;21354;-80
2020/12/15 10:23:37;;;;;;;28.67;16.57;;;;;;;8.52;53.78;101304.24;1797385;78;21240;-82
2020/12/15 10:26:05;;;;;;;28.45;17.32;;;;;;;8.52;53.75;101300.23;1800890;78;21118;-79
2020/12/15 10:28:33;;;;;;;27.02;15.75;;;;;;;8.51;53.69;101299.88;1793393;78;21140;-78
2020/12/15 10:31:04;;;;;;;29.82;16.52;;;;;;;8.51;53.61;101301.22;1798705;78;21129;-79
2020/12/15 10:33:32;;;;;;;24.50;15.63;;;;;;;8.48;53.62;101298.78;1803496;78;21214;-80
2020/12/15 10:36:02;;;;;;;27.95;15.93;;;;;;;8.46;53.70;101296.25;1801289;78;21632;-79
2020/12/15 10:38:30;;;;;;;30.20;16.27;;;;;;;8.43;53.64;101296.48;1795255;78;21446;-77
2020/12/15 10:41:00;;;;;;;22.82;14.07;;;;;;;8.42;53.70;101297.47;1803082;78;39147;-80
2020/12/15 10:43:29;;;;;;;26.12;15.65;;;;;;;8.42;53.70;101304.63;1807438;78;21159;-80
2020/12/15 10:45:57;;;;;;;27.20;15.95;;;;;;;8.42;53.76;101302.81;1806912;78;21188;-80
2020/12/15 10:48:25;;;;;;;30.32;17.60;;;;;;;8.41;53.85;101302.45;1802397;78;21129;-80
2020/12/15 10:50:53;;;;;;;30.48;17.65;;;;;;;8.42;53.88;101300.63;1832753;77;21543;-81
2020/12/15 10:53:21;;;;;;;28.77;16.60;;;;;;;8.41;53.92;101305.13;1831394;77;21174;-81
2020/12/15 10:55:49;;;;;;;34.98;18.98;;;;;;;8.39;53.86;101304.37;1834407;77;21176;-81
2020/12/15 10:58:17;;;;;;;34.30;18.23;;;;;;;8.37;53.90;101309.00;1803066;77;21382;-82
2020/12/15 11:00:45;;;;;;;30.62;16.85;;;;;;;8.36;53.95;101311.29;1828211;77;21615;-80
2020/12/15 11:03:13;;;;;;;30.97;17.32;;;;;;;8.29;54.08;101301.57;1838307;77;21592;-81
2020/12/15 11:05:41;;;;;;;33.40;18.23;;;;;;;8.24;54.28;101302.92;1836081;77;21110;-80
2020/12/15 11:08:09;;;;;;;28.92;17.42;;;;;;;8.29;54.30;101306.91;1807081;77;21117;-81
2020/12/15 11:10:38;;;;;;;32.88;18.27;;;;;;;8.33;54.29;101306.19;1808164;78;21325;-80
2020/12/15 11:13:06;;;;;;;31.57;18.15;;;;;;;8.38;54.21;101302.69;1780098;79;21129;-80
2020/12/15 11:15:34;;;;;;;33.40;19.20;;;;;;;8.40;54.12;101306.06;1798823;78;21831;-80
2020/12/15 11:18:02;;;;;;;32.85;18.20;;;;;;;8.42;54.07;101301.96;1809522;78;21148;-82
2020/12/15 11:20:31;;;;;;;36.55;20.23;;;;;;;8.41;54.00;101301.12;1810202;78;21125;-75
2020/12/15 11:23:01;;;;;;;33.92;19.07;;;;;;;8.43;54.00;101307.66;1807980;78;22071;-78
2020/12/15 11:25:30;;;;;;;26.57;14.87;;;;;;;8.42;53.94;101311.31;1814452;77;21122;-79
2020/12/15 11:27:58;;;;;;;34.95;19.82;;;;;;;8.41;53.96;101310.95;1810083;78;21102;-78
2020/12/15 11:30:26;;;;;;;30.17;17.92;;;;;;;8.40;53.91;101312.74;1833039;76;21105;-78